Time;durP1;ratioP1;P1;durP2;ratioP2;P2;SDS_P1;SDS_P2;PMS_P1;PMS_P2;Temp;Humidity;BMP_temperature;BMP_pressure;BME280_temperature;BME280_humidity;BME280_pressure;Samples;Min_cycle;Max_cycle;Signal;HPM_P1;HPM_P2
2022/09/05 00:02:05;;;;;;;10.50;3.63;;;;;;;18.37;73.57;101653.16;4997942;28;20018;-75
2022/09/05 00:04:53;;;;;;;4.40;2.85;;;;;;;18.28;73.85;101649.84;4999450;28;20030;-77
2022/09/05 00:07:33;;;;;;;4.40;3.08;;;;;;;18.23;74.12;101651.41;4998603;28;20121;-75
2022/09/05 00:10:18;;;;;;;4.32;2.90;;;;;;;18.20;74.27;101649.16;4998748;28;20052;-76
2022/09/05 00:12:45;;;;;;;4.55;2.60;;;;;;;18.16;74.51;101647.88;5012972;28;20034;-74
2022/09/05 00:15:26;;;;;;;5.93;2.78;;;;;;;18.16;74.46;101655.75;5000633;28;20088;-75
2022/09/05 00:18:28;;;;;;;4.47;2.55;;;;;;;18.20;74.44;101642.09;5003107;28;20033;-77
2022/09/05 00:21:25;;;;;;;8.30;3.20;;;;;;;18.22;74.25;101645.34;4983021;28;20399;-77
2022/09/05 00:24:06;;;;;;;5.00;2.72;;;;;;;18.23;74.11;101644.34;4995493;28;20130;-77
2022/09/05 00:27:09;;;;;;;5.72;2.38;;;;;;;18.18;74.44;101641.47;5003744;28;20034;-75
2022/09/05 00:29:42;;;;;;;;;;;;;;;18.11;74.85;101639.78;5017466;28;20061;-77
2022/09/05 00:32:17;;;;;;;3.17;2.53;;;;;;;18.02;75.01;101636.44;5003126;28;20834;-77
2022/09/05 00:35:11;;;;;;;6.15;2.70;;;;;;;17.99;75.10;101642.03;5006413;28;20125;-75
2022/09/05 00:37:46;;;;;;;4.35;2.92;;;;;;;17.95;75.18;101641.63;5003016;28;20033;-77
2022/09/05 00:40:28;;;;;;;3.55;2.53;;;;;;;17.94;75.29;101639.97;5030613;28;20081;-76
2022/09/05 00:42:58;;;;;;;5.97;2.83;;;;;;;17.89;75.54;101642.34;5002530;28;20029;-75
2022/09/05 00:45:46;;;;;;;3.90;2.92;;;;;;;17.84;75.84;101639.44;4995888;28;20121;-77
2022/09/05 00:48:30;;;;;;;4.45;2.50;;;;;;;17.81;75.92;101639.81;5000889;28;20038;-75
2022/09/05 00:50:58;;;;;;;5.32;2.67;;;;;;;17.82;75.90;101642.25;5012929;28;20041;-75
2022/09/05 00:53:47;;;;;;;4.43;2.45;;;;;;;17.84;75.71;101644.69;5014057;28;20052;-76
2022/09/05 00:56:40;;;;;;;4.13;2.80;;;;;;;17.82;75.77;101646.66;5027650;28;20137;-77
2022/09/05 00:59:43;;;;;;;4.07;2.72;;;;;;;17.77;75.89;101639.34;5002201;28;20041;-76
2022/09/05 01:02:30;;;;;;;5.50;2.47;;;;;;;17.76;76.05;101642.97;5004517;28;20045;-77
2022/09/05 01:05:15;;;;;;;5.60;2.75;;;;;;;17.75;76.03;101643.16;5029580;28;20038;-74
2022/09/05 01:08:18;;;;;;;4.38;2.55;;;;;;;17.74;75.99;101644.94;4986530;28;20041;-76
2022/09/05 01:10:55;;;;;;;5.93;2.70;;;;;;;17.75;76.01;101656.28;5011795;28;20067;-76
2022/09/05 01:13:54;;;;;;;5.97;3.17;;;;;;;17.75;76.00;101648.41;4995964;28;20407;-77
2022/09/05 01:16:38;;;;;;;5.15;2.67;;;;;;;17.73;75.94;101653.84;5010624;28;20034;-77
2022/09/05 01:19:07;;;;;;;4.90;3.00;;;;;;;17.75;75.91;101658.91;5000558;28;20476;-77
2022/09/05 01:22:02;;;;;;;5.15;3.05;;;;;;;17.71;76.21;101651.38;4997404;28;20038;-76
2022/09/05 01:24:52;;;;;;;4.95;2.60;;;;;;;17.65;76.58;101652.13;4998958;28;20495;-76
2022/09/05 01:27:51;;;;;;;5.30;2.72;;;;;;;17.52;77.07;101657.19;5004666;28;20129;-76
2022/09/05 01:30:22;;;;;;;5.00;2.60;;;;;;;17.41;77.47;101649.78;4992219;28;20061;-75
2022/09/05 01:33:09;;;;;;;3.65;2.88;;;;;;;17.30;77.97;101649.22;5012403;28;20475;-76
2022/09/05 01:35:54;;;;;;;4.38;2.60;;;;;;;17.25;78.34;101645.50;5010595;28;20060;-75
2022/09/05 01:38:48;;;;;;;4.15;3.22;;;;;;;17.27;78.33;101644.34;5003400;28;20049;-76
2022/09/05 01:41:36;;;;;;;4.65;3.17;;;;;;;17.26;78.62;101641.91;4998132;28;20058;-76
2022/09/05 01:44:11;;;;;;;6.80;2.90;;;;;;;17.19;79.06;101641.78;5013697;28;20742;-76
2022/09/05 01:46:42;;;;;;;4.53;3.35;;;;;;;17.20;79.73;101640.81;4996146;28;20264;-78
2022/09/05 01:49:23;;;;;;;6.15;3.60;;;;;;;17.25;80.46;101641.09;5025057;28;20034;-77
2022/09/05 01:52:23;;;;;;;9.93;3.38;;;;;;;17.23;80.56;101635.19;5001909;28;20057;-77
2022/09/05 01:55:04;;;;;;;10.18;3.80;;;;;;;17.26;80.83;101642.72;5014038;28;20043;-76
2022/09/05 01:57:56;;;;;;;8.93;4.45;;;;;;;17.35;81.31;101637.38;5003488;28;20061;-77
2022/09/05 02:00:28;;;;;;;8.32;5.05;;;;;;;17.39;81.25;101641.28;4992385;28;20030;-76
2022/09/05 02:03:35;;;;;;;8.63;4.68;;;;;;;17.35;81.40;101637.38;5028667;28;20034;-76
2022/09/05 02:06:06;;;;;;;7.43;4.25;;;;;;;17.37;81.27;101645.91;4999648;28;20042;-76
2022/09/05 02:08:43;;;;;;;6.50;4.20;;;;;;;17.38;81.27;101642.25;5016493;28;20040;-77
2022/09/05 02:11:13;;;;;;;6.97;4.32;;;;;;;17.34;81.34;101647.06;4998909;28;20037;-76
2022/09/05 02:14:02;;;;;;;6.25;3.90;;;;;;;17.35;80.87;101643.44;4999144;28;20407;-74
2022/09/05 02:16:43;;;;;;;8.38;4.38;;;;;;;17.35;80.60;101642.63;4993483;28;20068;-77
2022/09/05 02:19:08;;;;;;;6.03;3.90;;;;;;;17.34;80.43;101643.63;4996471;28;20072;-75
2022/09/05 02:21:37;;;;;;;5.90;3.90;;;;;;;17.30;80.71;101641.34;5002794;28;20425;-76
2022/09/05 02:24:18;;;;;;;4.28;3.25;;;;;;;17.25;80.98;101638.47;4995191;28;20562;-78
2022/09/05 02:27:21;;;;;;;6.95;4.00;;;;;;;17.23;81.32;101640.44;5002451;28;20736;-75
2022/09/05 02:29:54;;;;;;;5.83;3.80;;;;;;;17.23;81.14;101644.88;5001060;28;20053;-77
2022/09/05 02:32:35;;;;;;;5.60;3.50;;;;;;;17.20;81.26;101645.25;5000797;28;20041;-76
2022/09/05 02:35:09;;;;;;;6.28;4.05;;;;;;;17.19;81.73;101647.03;4986230;28;20125;-76
2022/09/05 02:37:43;;;;;;;6.47;3.53;;;;;;;17.20;82.04;101647.88;4997968;28;20026;-78
2022/09/05 02:40:19;;;;;;;7.30;3.88;;;;;;;17.18;82.02;101653.28;4997559;28;20021;-78
2022/09/05 02:43:24;;;;;;;6.35;4.07;;;;;;;17.17;82.10;101650.84;4997044;28;20034;-76
2022/09/05 02:46:24;;;;;;;5.57;3.28;;;;;;;17.14;81.87;101646.78;4999905;28;20041;-76
2022/09/05 02:49:30;;;;;;;5.60;3.78;;;;;;;17.11;82.24;101650.56;4995447;28;20181;-77
2022/09/05 02:52:04;;;;;;;7.15;4.25;;;;;;;17.10;82.61;101646.31;4996193;28;20041;-76
2022/09/05 02:54:38;;;;;;;5.07;3.63;;;;;;;17.06;82.77;101641.59;5000575;28;20068;-76
2022/09/05 02:57:32;;;;;;;7.55;4.05;;;;;;;17.03;82.81;101649.84;4991992;28;20481;-75
2022/09/05 03:00:21;;;;;;;5.47;3.67;;;;;;;17.00;82.40;101650.19;4984150;28;20501;-76
2022/09/05 03:02:56;;;;;;;5.80;3.08;;;;;;;16.99;82.36;101643.28;4979485;28;20033;-76
2022/09/05 03:05:28;;;;;;;6.53;3.80;;;;;;;16.91;82.35;101645.03;4994236;28;20125;-75
2022/09/05 03:08:18;;;;;;;4.22;3.20;;;;;;;16.83;82.58;101650.31;4982954;28;20644;-74
2022/09/05 03:11:19;;;;;;;4.38;3.63;;;;;;;16.77;82.92;101642.34;4998751;28;20065;-76
2022/09/05 03:14:17;;;;;;;6.35;3.83;;;;;;;16.74;83.06;101641.69;4994425;28;20038;-75
2022/09/05 03:17:10;;;;;;;8.70;4.38;;;;;;;16.74;83.24;101648.72;5017524;28;20030;-76
2022/09/05 03:19:44;;;;;;;7.90;4.07;;;;;;;16.76;82.98;101648.53;4993826;28;20775;-76
2022/09/05 03:22:39;;;;;;;7.68;3.58;;;;;;;16.78;82.88;101649.19;4997194;28;20057;-76
2022/09/05 03:25:19;;;;;;;6.88;4.25;;;;;;;16.80;82.97;101655.06;4996515;28;20038;-76
2022/09/05 03:28:09;;;;;;;6.50;3.40;;;;;;;16.77;84.04;101647.56;4992272;28;20037;-77
2022/09/05 03:31:11;;;;;;;8.93;4.65;;;;;;;16.68;85.00;101650.22;5002966;28;20030;-77
2022/09/05 03:33:51;;;;;;;7.80;4.63;;;;;;;16.60;85.17;101647.69;5008849;28;20037;-76
2022/09/05 03:36:49;;;;;;;6.63;3.50;;;;;;;16.60;85.10;101642.44;5000921;28;20030;-76
2022/09/05 03:39:34;;;;;;;5.63;3.63;;;;;;;16.59;85.07;101646.03;5015591;28;20037;-76
2022/09/05 03:42:34;;;;;;;11.57;5.45;;;;;;;16.64;85.30;101648.16;5001500;28;20026;-76
2022/09/05 03:45:10;;;;;;;7.47;3.85;;;;;;;16.60;85.61;101649.50;5006345;28;20041;-76
2022/09/05 03:48:08;;;;;;;6.35;3.85;;;;;;;16.56;85.96;101651.66;5000809;28;20065;-77
2022/09/05 03:50:43;;;;;;;8.52;3.45;;;;;;;16.53;85.78;101652.78;5001355;28;20037;-75
2022/09/05 03:53:23;;;;;;;7.63;3.50;;;;;;;16.52;86.22;101655.59;5009429;28;20884;-76
2022/09/05 03:56:09;;;;;;;8.18;4.63;;;;;;;16.49;86.46;101664.59;5005295;28;20034;-75
2022/09/05 03:58:56;;;;;;;5.20;3.78;;;;;;;16.48;86.59;101660.38;5006701;28;20564;-75
2022/09/05 04:01:34;;;;;;;6.07;3.95;;;;;;;16.50;86.41;101655.78;5034263;28;20044;-77
2022/09/05 04:04:24;;;;;;;7.63;3.97;;;;;;;16.51;86.62;101651.34;5005643;28;20038;-76
2022/09/05 04:06:59;;;;;;;6.72;3.80;;;;;;;16.51;86.13;101653.97;5002695;28;20393;-75
2022/09/05 04:10:02;;;;;;;6.88;3.72;;;;;;;16.51;85.71;101654.78;5001616;28;20479;-75
2022/09/05 04:12:37;;;;;;;6.55;4.03;;;;;;;16.46;85.57;101657.13;5006691;28;20125;-75
2022/09/05 04:15:13;;;;;;;9.23;4.72;;;;;;;16.39;85.70;101652.72;5016916;28;20053;-76
2022/09/05 04:17:38;;;;;;;6.57;4.22;;;;;;;16.29;85.95;101656.41;5007807;28;20030;-75
2022/09/05 04:20:16;;;;;;;7.80;4.00;;;;;;;16.23;86.07;101659.69;5008959;28;20474;-76
2022/09/05 04:23:09;;;;;;;6.90;3.95;;;;;;;16.20;85.92;101654.81;5000759;28;20060;-76
2022/09/05 04:25:47;;;;;;;9.80;3.83;;;;;;;16.18;85.90;101656.81;5037072;28;20080;-76
2022/09/05 04:28:12;;;;;;;7.70;4.00;;;;;;;16.14;86.03;101661.56;5034625;28;20042;-75
2022/09/05 04:30:59;;;;;;;15.50;4.43;;;;;;;16.10;86.56;101668.09;5002631;28;20109;-75
2022/09/05 04:33:56;;;;;;;5.43;3.83;;;;;;;16.14;86.59;101663.34;5030866;28;20113;-76
2022/09/05 04:36:28;;;;;;;8.07;4.97;;;;;;;16.06;87.36;101666.81;5020049;28;20046;-76
2022/09/05 04:39:16;;;;;;;7.70;4.78;;;;;;;15.97;87.37;101665.22;5001344;28;20061;-76
2022/09/05 04:41:48;;;;;;;6.30;4.50;;;;;;;15.93;87.58;101666.56;5007038;28;20046;-76
2022/09/05 04:44:23;;;;;;;10.35;5.25;;;;;;;15.90;87.98;101666.91;5005333;28;20072;-76
2022/09/05 04:47:10;;;;;;;7.75;4.72;;;;;;;15.87;87.74;101664.63;5007241;28;20053;-76
2022/09/05 04:49:44;;;;;;;10.48;5.43;;;;;;;15.85;87.91;101667.41;5004097;28;20038;-76
2022/09/05 04:52:51;;;;;;;8.52;5.28;;;;;;;15.82;87.77;101672.16;4998464;28;20501;-75
2022/09/05 04:55:29;;;;;;;7.47;4.55;;;;;;;15.81;87.81;101673.16;4997161;28;20034;-76
2022/09/05 04:58:12;;;;;;;11.73;5.20;;;;;;;15.85;87.58;101674.44;4999433;28;20069;-75
2022/09/05 05:00:58;;;;;;;9.60;5.43;;;;;;;15.85;87.38;101672.63;5002189;28;20435;-76
2022/09/05 05:03:30;;;;;;;12.30;6.22;;;;;;;15.87;87.24;101675.09;5036442;28;20049;-76
2022/09/05 05:06:01;;;;;;;8.98;5.15;;;;;;;15.83;87.64;101679.84;5000084;28;20040;-76
2022/09/05 05:08:49;;;;;;;8.68;5.47;;;;;;;15.81;87.58;101681.81;4997895;28;20541;-76
2022/09/05 05:11:36;;;;;;;7.20;5.10;;;;;;;15.81;87.93;101679.19;5014369;28;20041;-76
2022/09/05 05:14:19;;;;;;;7.63;5.07;;;;;;;15.82;87.76;101680.81;4999624;28;20037;-76
2022/09/05 05:16:52;;;;;;;9.82;5.45;;;;;;;15.83;88.18;101686.88;4998575;28;20052;-76
2022/09/05 05:19:30;;;;;;;8.38;5.40;;;;;;;15.84;88.65;101691.09;5035203;28;20132;-76
2022/09/05 05:22:00;;;;;;;8.65;5.18;;;;;;;15.86;88.90;101687.34;4989222;28;20430;-77
2022/09/05 05:24:34;;;;;;;14.02;6.90;;;;;;;15.94;90.00;101682.09;5003812;28;20045;-76
2022/09/05 05:27:06;;;;;;;9.63;5.88;;;;;;;16.05;89.95;101695.75;5017579;28;20038;-76
2022/09/05 05:29:47;;;;;;;10.00;5.60;;;;;;;16.05;90.18;101696.59;5001437;28;20041;-76
2022/09/05 05:32:20;;;;;;;9.57;6.43;;;;;;;16.02;90.16;101691.69;5025801;28;20045;-76
2022/09/05 05:34:52;;;;;;;;;;;;;;;16.06;90.65;101692.16;5002606;28;20387;-76
2022/09/05 05:37:28;;;;;;;9.23;5.90;;;;;;;16.06;90.60;101697.41;4998466;28;20128;-77
2022/09/05 05:40:09;;;;;;;7.78;5.65;;;;;;;16.06;90.61;101695.59;4998318;28;20367;-76
2022/09/05 05:42:37;;;;;;;9.88;6.32;;;;;;;16.08;90.72;101701.47;5002553;28;20034;-77
2022/09/05 05:45:03;;;;;;;10.57;6.25;;;;;;;16.17;90.73;101693.59;5000252;28;20132;-76
2022/09/05 05:47:41;;;;;;;12.18;5.75;;;;;;;16.31;90.37;101700.69;5003327;28;20033;-76
2022/09/05 05:50:48;;;;;;;8.93;4.88;;;;;;;16.28;90.41;101707.09;5011782;28;20120;-77
2022/09/05 05:53:24;;;;;;;10.18;5.18;;;;;;;16.35;90.37;101702.00;5012595;28;20112;-77
2022/09/05 05:56:29;;;;;;;9.40;5.10;;;;;;;16.39;90.48;101695.44;5001989;28;20126;-77
2022/09/05 05:59:02;;;;;;;9.32;4.72;;;;;;;16.52;89.73;101694.88;5003437;28;20084;-76
2022/09/05 06:02:02;;;;;;;12.30;5.30;;;;;;;16.57;89.50;101697.78;5010588;28;20047;-75
2022/09/05 06:05:13;;;;;;;17.40;6.75;;;;;;;16.61;89.32;101701.66;4998897;28;20096;-76
2022/09/05 06:07:53;;;;;;;5.57;4.43;;;;;;;16.69;88.93;101700.81;5013256;28;20377;-76
2022/09/05 06:11:03;;;;;;;9.35;5.07;;;;;;;16.77;88.38;101699.94;5017611;28;20433;-76
2022/09/05 06:14:15;;;;;;;10.45;4.85;;;;;;;16.74;89.08;101701.94;4997759;28;20077;-75
2022/09/05 06:17:17;;;;;;;7.40;4.78;;;;;;;16.79;88.97;101708.44;5000288;28;20022;-76
2022/09/05 06:20:07;;;;;;;9.45;5.05;;;;;;;16.96;87.68;101698.69;4995810;28;20053;-75
2022/09/05 06:22:51;;;;;;;11.15;4.88;;;;;;;17.15;86.99;101706.03;4995864;28;20503;-76
2022/09/05 06:26:08;;;;;;;8.20;5.22;;;;;;;17.24;86.09;101712.84;4995924;28;22013;-76
2022/09/05 06:28:51;;;;;;;11.30;4.90;;;;;;;17.38;85.12;101713.84;4997001;28;20140;-76
2022/09/05 06:31:34;;;;;;;10.57;5.20;;;;;;;17.51;84.67;101713.22;5002398;28;20037;-75
2022/09/05 06:34:46;;;;;;;7.53;4.45;;;;;;;17.63;84.23;101716.22;5013501;28;20084;-77
2022/09/05 06:37:38;;;;;;;11.10;4.60;;;;;;;17.75;83.38;101713.97;4994686;28;20034;-76
2022/09/05 06:40:26;;;;;;;7.43;5.28;;;;;;;17.92;82.75;101714.63;5027108;28;20105;-75
2022/09/05 06:43:12;;;;;;;9.05;4.63;;;;;;;18.14;81.63;101710.25;4998229;28;20045;-76
2022/09/05 06:46:03;;;;;;;6.88;3.92;;;;;;;18.35;80.45;101709.50;4998838;28;20081;-76
2022/09/05 06:48:55;;;;;;;5.45;3.97;;;;;;;18.57;79.64;101705.88;4989535;28;20515;-76
2022/09/05 06:51:41;;;;;;;7.90;4.38;;;;;;;18.90;78.08;101709.84;4998972;28;20034;-77
2022/09/05 06:54:42;;;;;;;10.15;4.32;;;;;;;19.42;74.95;101708.59;4998311;28;20867;-76
2022/09/05 06:57:28;;;;;;;10.27;4.32;;;;;;;20.32;72.32;101711.28;4998554;28;20040;-76
2022/09/05 07:00:19;;;;;;;8.07;4.05;;;;;;;21.12;67.77;101703.50;5019363;28;20033;-77
2022/09/05 07:03:00;;;;;;;8.93;3.85;;;;;;;21.93;64.46;101702.31;5001314;28;20038;-76
2022/09/05 07:05:38;;;;;;;4.45;3.42;;;;;;;22.78;62.32;101694.09;5000555;28;20406;-76
2022/09/05 07:08:17;;;;;;;5.82;3.50;;;;;;;23.12;59.08;101707.84;4995018;28;20038;-76
2022/09/05 07:10:54;;;;;;;6.90;3.83;;;;;;;23.13;58.31;101705.00;5019427;28;20093;-75
2022/09/05 07:13:34;;;;;;;4.85;2.80;;;;;;;23.09;57.74;101706.47;4997655;28;20383;-76
2022/09/05 07:16:17;;;;;;;5.55;2.85;;;;;;;23.38;56.97;101708.63;4997354;28;20037;-77
2022/09/05 07:18:42;;;;;;;7.70;3.40;;;;;;;23.57;55.88;101712.09;4992674;28;20132;-76
2022/09/05 07:21:29;;;;;;;5.50;2.83;;;;;;;23.73;55.90;101715.97;5000756;28;20109;-76
2022/09/05 07:24:06;;;;;;;5.50;2.58;;;;;;;24.11;54.57;101710.44;4997272;28;20476;-76
2022/09/05 07:26:35;;;;;;;9.15;2.55;;;;;;;24.48;53.63;101708.47;4999258;28;20048;-77
2022/09/05 07:29:04;;;;;;;3.75;2.38;;;;;;;25.09;51.86;101707.53;5001814;28;20089;-78
2022/09/05 07:31:32;;;;;;;4.13;2.55;;;;;;;25.25;51.18;101706.88;4997103;28;20133;-79
2022/09/05 07:34:09;;;;;;;5.10;2.50;;;;;;;25.20;51.02;101709.38;5003765;28;20030;-75
2022/09/05 07:36:42;;;;;;;3.92;2.67;;;;;;;25.04;50.97;101706.38;4996673;28;20427;-76
2022/09/05 07:39:11;;;;;;;6.47;2.55;;;;;;;25.31;50.86;101710.44;4998256;28;20056;-76
2022/09/05 07:41:39;;;;;;;10.07;4.18;;;;;;;25.44;50.43;101700.38;5028820;28;20169;-75
2022/09/05 07:44:14;;;;;;;4.72;2.08;;;;;;;25.37;49.06;101702.38;5001640;28;20446;-75
2022/09/05 07:46:42;;;;;;;7.30;2.72;;;;;;;25.67;48.58;101708.53;5002856;28;20375;-76
2022/09/05 07:49:13;;;;;;;2.72;2.05;;;;;;;25.97;48.37;101703.03;4995591;28;20030;-76
2022/09/05 07:51:51;;;;;;;5.95;2.20;;;;;;;25.82;47.61;101707.00;5025774;28;20046;-74
2022/09/05 07:54:23;;;;;;;6.57;2.60;;;;;;;25.99;47.64;101717.69;5032660;28;20037;-75
2022/09/05 07:57:02;;;;;;;5.65;2.20;;;;;;;26.16;47.23;101715.09;4986406;28;20129;-77
2022/09/05 07:59:32;;;;;;;7.32;2.17;;;;;;;26.45;45.61;101711.56;5029440;28;20148;-77
2022/09/05 08:02:00;;;;;;;3.78;1.92;;;;;;;26.36;46.43;101703.19;5002320;28;20042;-76
2022/09/05 08:04:32;;;;;;;2.90;2.00;;;;;;;26.88;45.33;101705.66;4998079;28;20030;-76
2022/09/05 08:07:10;;;;;;;8.07;2.27;;;;;;;27.48;44.46;101706.75;4999814;28;20030;-77
2022/09/05 08:09:37;;;;;;;6.43;2.15;;;;;;;27.56;43.53;101700.19;4994535;28;20041;-76
2022/09/05 08:12:10;;;;;;;12.45;2.10;;;;;;;27.62;43.45;101693.84;4999890;28;20726;-77
2022/09/05 08:14:54;;;;;;;7.78;2.03;;;;;;;27.74;43.31;101699.03;4996531;28;20081;-76
2022/09/05 08:17:23;;;;;;;3.45;1.80;;;;;;;28.04;42.99;101703.13;4996771;28;20042;-77
2022/09/05 08:20:06;;;;;;;6.50;2.03;;;;;;;28.51;42.05;101697.91;5004042;28;20041;-76
2022/09/05 08:22:48;;;;;;;2.08;1.60;;;;;;;29.07;41.09;101684.19;5005490;28;20034;-76
2022/09/05 08:25:26;;;;;;;2.20;1.65;;;;;;;29.10;40.53;101689.00;5028183;28;20025;-75
2022/09/05 08:28:08;;;;;;;11.10;1.95;;;;;;;28.93;40.00;101694.53;5030470;28;20042;-76
2022/09/05 08:30:43;;;;;;;3.85;1.92;;;;;;;29.19;39.74;101685.88;5005754;28;20034;-76
2022/09/05 08:33:24;;;;;;;10.32;2.40;;;;;;;29.42;39.65;101687.28;4997637;28;20115;-76
2022/09/05 08:35:52;;;;;;;3.85;1.75;;;;;;;29.73;39.34;101668.69;5015253;28;20514;-77
2022/09/05 08:38:18;;;;;;;5.72;1.90;;;;;;;29.83;38.73;101669.53;4997579;28;20034;-76
2022/09/05 08:41:04;;;;;;;4.70;1.90;;;;;;;30.08;38.63;101665.28;5026224;28;20029;-77
2022/09/05 08:43:58;;;;;;;8.48;1.80;;;;;;;30.18;38.72;101667.16;5016505;28;21386;-77
2022/09/05 08:46:34;;;;;;;4.47;1.80;;;;;;;30.23;38.64;101662.63;4999631;28;20057;-76
2022/09/05 08:49:21;;;;;;;5.80;2.00;;;;;;;30.42;37.97;101664.75;5014523;28;20545;-77
2022/09/05 08:51:52;;;;;;;4.13;2.05;;;;;;;30.08;37.99;101665.28;5014949;28;20038;-76
2022/09/05 08:54:45;;;;;;;3.60;1.60;;;;;;;30.57;37.79;101666.63;4999949;28;20030;-77
2022/09/05 08:57:16;;;;;;;;;;;;;;;30.52;37.50;101664.75;5002825;28;20029;-77
2022/09/05 08:59:50;;;;;;;3.58;1.70;;;;;;;30.31;37.05;101665.81;5009812;28;20310;-77
2022/09/05 09:02:37;;;;;;;6.60;2.22;;;;;;;30.40;37.52;101666.91;5016853;28;20136;-77
2022/09/05 09:05:16;;;;;;;4.57;1.60;;;;;;;30.45;36.46;101664.22;4991202;28;20048;-76
2022/09/05 09:07:56;;;;;;;2.67;1.67;;;;;;;30.72;36.77;101665.78;5003454;28;20030;-76
2022/09/05 09:10:44;;;;;;;3.70;1.70;;;;;;;30.95;36.67;101656.38;5004084;28;20049;-76
2022/09/05 09:13:27;;;;;;;4.00;1.65;;;;;;;30.49;35.57;101665.28;4984160;28;20042;-76
2022/09/05 09:16:03;;;;;;;3.13;1.27;;;;;;;30.45;36.25;101659.69;4998691;28;20045;-76
2022/09/05 09:18:56;;;;;;;1.65;1.40;;;;;;;30.46;36.01;101661.28;5005671;28;20046;-77
2022/09/05 09:21:22;;;;;;;;;;;;;;;30.22;37.28;101663.69;4999138;28;20057;-77
2022/09/05 09:23:54;;;;;;;3.92;1.70;;;;;;;30.37;37.07;101652.22;5000043;28;19917;-76
2022/09/05 09:26:26;;;;;;;3.83;1.55;;;;;;;30.59;36.81;101659.13;4993620;28;20124;-76
2022/09/05 09:29:06;;;;;;;4.15;1.70;;;;;;;30.55;35.88;101660.75;5019426;28;20030;-75
2022/09/05 09:31:38;;;;;;;4.85;1.30;;;;;;;30.52;35.97;101654.06;5004344;28;20396;-77
2022/09/05 09:34:20;;;;;;;4.45;2.08;;;;;;;30.22;36.58;101660.22;5002500;28;20040;-77
2022/09/05 09:37:01;;;;;;;2.97;1.60;;;;;;;30.20;36.30;101649.78;5003693;28;20038;-76
2022/09/05 09:39:45;;;;;;;4.18;1.67;;;;;;;30.62;35.66;101647.88;4998863;28;20602;-77
2022/09/05 09:42:52;;;;;;;3.63;1.85;;;;;;;30.53;35.93;101649.50;4995797;28;20706;-76
2022/09/05 09:45:24;;;;;;;5.93;1.23;;;;;;;30.42;35.82;101648.72;5003048;28;20033;-76
2022/09/05 09:47:59;;;;;;;5.70;1.30;;;;;;;30.49;35.34;101648.44;5016424;28;20033;-77
2022/09/05 09:50:55;;;;;;;4.60;1.50;;;;;;;30.52;35.61;101647.91;4997936;28;20053;-77
2022/09/05 09:53:32;;;;;;;2.95;1.30;;;;;;;30.41;35.34;101647.13;4999372;28;20052;-77
2022/09/05 09:56:05;;;;;;;3.03;1.55;;;;;;;30.58;34.68;101646.84;5031152;28;20034;-75
2022/09/05 09:58:45;;;;;;;4.82;1.48;;;;;;;30.74;34.06;101636.88;4999831;28;20446;-75
2022/09/05 10:01:31;;;;;;;5.40;1.52;;;;;;;30.64;34.79;101635.84;5003279;28;20100;-77
2022/09/05 10:04:17;;;;;;;5.32;1.23;;;;;;;31.03;33.83;101629.06;4997804;28;20061;-77
2022/09/05 10:06:42;;;;;;;3.08;1.40;;;;;;;31.11;33.50;101630.38;4998117;28;20114;-77
2022/09/05 10:09:18;;;;;;;3.80;1.77;;;;;;;31.11;32.40;101628.47;5028594;28;20481;-76
2022/09/05 10:12:26;;;;;;;2.78;1.20;;;;;;;31.15;32.50;101628.75;5006523;28;20070;-76
2022/09/05 10:15:02;;;;;;;3.92;1.50;;;;;;;31.06;32.01;101623.16;4997396;28;20053;-76
2022/09/05 10:17:33;;;;;;;1.30;1.20;;;;;;;30.85;32.36;101619.72;5028097;28;20030;-77
2022/09/05 10:20:38;;;;;;;3.92;1.45;;;;;;;31.01;32.42;101620.50;5000607;28;20105;-77
2022/09/05 10:23:21;;;;;;;3.28;1.67;;;;;;;30.99;32.40;101618.09;5022210;28;20065;-77
2022/09/05 10:25:47;;;;;;;7.50;1.90;;;;;;;30.92;32.19;101617.59;4999026;28;20117;-76
2022/09/05 10:28:42;;;;;;;9.88;1.42;;;;;;;31.25;30.69;101618.00;5003489;28;20126;-76
2022/09/05 10:31:18;;;;;;;3.38;1.38;;;;;;;31.24;31.44;101619.06;5003617;28;20391;-77
2022/09/05 10:34:09;;;;;;;4.10;1.50;;;;;;;31.08;31.77;101614.84;4988028;28;20042;-74
2022/09/05 10:36:38;;;;;;;1.70;1.10;;;;;;;30.79;30.69;101612.78;5001388;28;20041;-73
2022/09/05 10:39:24;;;;;;;2.28;1.20;;;;;;;30.71;30.47;101611.47;4996859;28;20034;-74
2022/09/05 10:41:58;;;;;;;5.47;1.63;;;;;;;30.31;31.75;101613.16;5001880;28;20034;-74
2022/09/05 10:44:45;;;;;;;3.05;1.42;;;;;;;30.72;30.39;101602.34;5003223;28;20066;-74
2022/09/05 10:47:25;;;;;;;6.53;1.30;;;;;;;30.68;30.13;101595.97;5032727;28;20077;-74
2022/09/05 10:50:17;;;;;;;5.78;2.47;;;;;;;30.70;30.93;101606.41;5004166;28;20037;-74
2022/09/05 10:53:23;;;;;;;4.25;1.33;;;;;;;30.88;31.08;101608.47;5005064;28;20038;-74
2022/09/05 10:56:10;;;;;;;6.65;1.67;;;;;;;30.97;29.05;101600.72;5004093;28;20446;-77
2022/09/05 10:59:00;;;;;;;3.13;1.20;;;;;;;31.20;28.77;101600.06;4996991;28;20080;-77
2022/09/05 11:01:32;;;;;;;2.83;1.30;;;;;;;31.07;30.12;101597.97;5006167;28;20049;-77
2022/09/05 11:04:12;;;;;;;5.77;1.30;;;;;;;31.18;28.34;101586.16;5002562;28;20045;-77
2022/09/05 11:06:38;;;;;;;6.10;1.33;;;;;;;31.03;28.92;101589.69;5031038;28;20502;-76
2022/09/05 11:09:12;;;;;;;4.78;1.45;;;;;;;31.19;29.23;101589.63;5000955;28;20045;-76
2022/09/05 11:11:59;;;;;;;4.63;1.60;;;;;;;31.05;29.32;101581.41;5010355;28;20034;-76
2022/09/05 11:14:48;;;;;;;5.70;1.48;;;;;;;30.89;29.01;101579.81;5025809;28;20128;-76
2022/09/05 11:17:29;;;;;;;2.95;1.23;;;;;;;31.01;29.16;101575.00;5003394;28;20033;-76
2022/09/05 11:20:00;;;;;;;3.90;1.50;;;;;;;31.37;28.93;101572.13;4999590;28;20034;-77
2022/09/05 11:22:33;;;;;;;3.33;1.20;;;;;;;31.37;28.02;101572.13;5001547;28;20030;-76
2022/09/05 11:25:03;;;;;;;2.42;1.30;;;;;;;31.09;28.60;101566.38;4998354;28;20030;-78
2022/09/05 11:27:44;;;;;;;2.85;1.10;;;;;;;31.19;28.19;101569.00;4998208;28;20038;-77
2022/09/05 11:30:26;;;;;;;5.57;1.27;;;;;;;30.96;28.65;101561.63;5001750;28;20046;-76
2022/09/05 11:32:54;;;;;;;2.25;1.27;;;;;;;31.19;28.62;101558.31;5001472;28;20048;-76
2022/09/05 11:35:25;;;;;;;2.15;1.45;;;;;;;31.37;28.06;101566.75;5002513;28;20045;-77
2022/09/05 11:37:50;;;;;;;3.13;1.30;;;;;;;31.40;28.82;101566.19;4999972;28;20072;-76
2022/09/05 11:40:38;;;;;;;4.30;1.80;;;;;;;31.54;27.80;101567.19;5003680;28;20123;-76
2022/09/05 11:43:18;;;;;;;1.73;1.23;;;;;;;31.62;27.33;101555.88;5027195;28;20073;-76
2022/09/05 11:46:18;;;;;;;2.47;1.02;;;;;;;31.74;28.66;101562.75;4997472;28;20041;-77
2022/09/05 11:49:12;;;;;;;4.35;1.38;;;;;;;31.69;28.02;101562.81;5012717;28;20038;-77
2022/09/05 11:52:14;;;;;;;4.03;1.40;;;;;;;31.70;28.73;101562.50;5000401;28;20410;-77
2022/09/05 11:55:12;;;;;;;2.70;1.20;;;;;;;31.62;27.60;101563.91;5000488;28;20033;-77
2022/09/05 11:57:41;;;;;;;53.95;26.17;;;;;;;31.44;27.38;101556.53;5002966;28;20975;-76
2022/09/05 12:00:27;;;;;;;18.10;9.60;;;;;;;31.63;27.18;101559.38;5009335;28;20048;-77
2022/09/05 12:03:31;;;;;;;4.47;1.40;;;;;;;31.76;26.75;101549.88;5000368;28;20038;-77
2022/09/05 12:06:40;;;;;;;4.15;0.95;;;;;;;31.90;25.10;101550.03;5007017;28;20394;-76
2022/09/05 12:09:27;;;;;;;4.13;1.60;;;;;;;31.83;24.79;101547.66;5025389;28;20570;-77
2022/09/05 12:12:26;;;;;;;1.77;0.98;;;;;;;31.73;25.08;101550.44;5005190;28;20033;-77
2022/09/05 12:15:19;;;;;;;1.17;0.93;;;;;;;31.89;25.49;101553.78;5005139;28;20169;-76
2022/09/05 12:18:41;;;;;;;4.18;1.10;;;;;;;31.86;25.23;101543.63;5005276;28;20034;-78
2022/09/05 12:21:31;;;;;;;2.88;1.15;;;;;;;32.13;24.58;101540.44;5004547;28;20065;-76
2022/09/05 12:24:09;;;;;;;2.20;0.95;;;;;;;32.09;24.46;101540.22;4998912;28;20038;-78
2022/09/05 12:27:15;;;;;;;1.50;0.82;;;;;;;31.90;24.55;101542.00;5015205;28;20113;-78
2022/09/05 12:29:45;;;;;;;2.88;1.27;;;;;;;31.74;25.05;101528.72;5025000;28;20041;-75
2022/09/05 12:32:19;;;;;;;1.60;0.98;;;;;;;31.85;25.11;101536.66;4990111;28;20447;-74
2022/09/05 12:34:51;;;;;;;4.15;1.10;;;;;;;31.76;25.38;101531.09;4999746;28;20046;-74
2022/09/05 12:37:22;;;;;;;2.63;1.20;;;;;;;31.76;25.54;101531.09;5026606;28;20116;-75